Arizona State University, AZ

7:50 AM MST on January 30, 2015 (GMT -0700)
Down Stream Dam | Change Station
CLOSE
Current Station
Personal Weather Station
Location: Tempe, AZ
Elevation: 1122 ft
Nearby Weather Stations

Elev 1122 ft 33.43 °N, 111.95 °W | Updated 4 minutes ago

Overcast
Overcast
56.6 °F
Feels Like 56.6 °F
N
4.0
Wind Variable Wind from NNW
Gusts 4.0 mph

Today
High -- | Low -- °F
--% Chance of Precip.
Yesterday
High -- | Low -- °F
Precip. -- in
7:25 AM 5:57 PM
Waxing Gibbous, 83% visible
Pressure 29.90 in
Visibility 8.0 miles
Clouds Mostly Cloudy 700 ft
Overcast 1800 ft
Dew Point 54 °F
Humidity 92%
Rainfall 0.00 in
Snow Depth Not available.
UV 0 out of 12
Pollen .60 out of 12
Air Quality Not available.
Flu Activity Not available.
SPECI KPHX 301425Z 09006KT 8SM BKN007 OVC018 14/13 A2990 RMK AO2 T01440128

More Conditions Fewer Conditions

Pressure 29.90 in
Visibility 8.0 miles
Clouds Mostly Cloudy 700 ft
Overcast 1800 ft
Dew Point 54 °F
Humidity 92%
Rainfall 0.00 in
Snow Depth Not available.
UV 0 out of 12
Pollen .60 out of 12
Air Quality Not available.
Flu Activity Not available.
SPECI KPHX 301425Z 09006KT 8SM BKN007 OVC018 14/13 A2990 RMK AO2 T01440128

More Conditions Fewer Conditions

10-Day Weather Forecast

Almanac

Astronomy

Jan. 30, 2015 Rise Set
Actual Time
Civil Twilight
Nautical Twilight
Astronomical Twilight
Moon
Length of Visible Light
Length of Day
Tomorrow will be .
, % of the Moon is Illuminated

Today's Extremes

State Highs State Lows

Community

WunderPhotos

Upload Photos

1,791,768 photos uploaded!

WunderBlogs® & News

Nearby

Air Quality

  Air Quality AQ Index Pollutant
Not available.

Snow Depth

Station Depth Elevation

Earthquake Activity

City Distance Mag. Time & Date
Minimum magnitude displayed is 2.5.

Coastal Water Temperatures

Place Temperature

Nearby Weather Stations